createdAt,value
2022-10-28T00:03:42.479Z,10.30
2022-10-28T00:08:45.508Z,9.10
2022-10-28T00:13:48.882Z,10.30
2022-10-28T00:18:54.423Z,9.65
2022-10-28T00:23:57.771Z,9.30
2022-10-28T00:29:02.847Z,7.95
2022-10-28T00:34:07.786Z,6.95
2022-10-28T00:39:21.794Z,6.10
2022-10-28T00:44:43.905Z,3.90
2022-10-28T00:49:48.132Z,3.80
2022-10-28T00:54:52.390Z,4.63
2022-10-28T00:59:55.247Z,5.10
2022-10-28T01:04:57.951Z,3.88
2022-10-28T01:10:00.743Z,3.78
2022-10-28T01:15:24.913Z,3.92
2022-10-28T01:20:36.201Z,3.63
2022-10-28T01:25:48.565Z,3.63
2022-10-28T01:31:24.565Z,4.38
2022-10-28T01:36:30.179Z,4.28
2022-10-28T01:41:48.109Z,4.70
2022-10-28T01:47:14.044Z,4.75
2022-10-28T01:52:20.299Z,5.10
2022-10-28T01:57:24.526Z,4.93
2022-10-28T02:02:27.166Z,6.43
2022-10-28T02:07:30.036Z,4.82
2022-10-28T02:12:34.469Z,5.13
2022-10-28T02:18:21.215Z,3.05
2022-10-28T02:23:29.746Z,4.18
2022-10-28T02:28:48.451Z,5.05
2022-10-28T02:33:54.725Z,4.70
2022-10-28T02:38:59.689Z,3.17
2022-10-28T02:49:13.745Z,3.47
2022-10-28T02:54:22.692Z,2.95
2022-10-28T02:59:26.184Z,2.08
2022-10-28T03:04:28.915Z,1.90
2022-10-28T03:09:31.663Z,1.85
2022-10-28T03:14:34.358Z,1.23
2022-10-28T03:19:37.095Z,1.77
2022-10-28T03:24:39.786Z,2.20
2022-10-28T03:29:45.690Z,2.17
2022-10-28T03:34:48.924Z,2.63
2022-10-28T03:39:51.645Z,1.90
2022-10-28T03:44:54.339Z,1.70
2022-10-28T03:49:57.059Z,1.45
2022-10-28T03:54:59.813Z,3.10
2022-10-28T04:00:02.742Z,1.60
2022-10-28T04:05:14.558Z,2.08
2022-10-28T04:10:17.439Z,1.55
2022-10-28T04:15:20.294Z,1.42
2022-10-28T04:20:23.730Z,1.52
2022-10-28T04:25:27.605Z,1.05
2022-10-28T04:30:30.602Z,1.50
2022-10-28T04:35:33.477Z,1.20
2022-10-28T04:40:36.403Z,1.15
2022-10-28T04:45:39.754Z,1.25
2022-10-28T04:50:42.551Z,0.80
2022-10-28T04:55:48.087Z,0.60
2022-10-28T05:00:50.785Z,1.23
2022-10-28T05:05:53.469Z,0.60
2022-10-28T05:10:56.287Z,1.80
2022-10-28T05:15:58.909Z,2.00
2022-10-28T05:21:01.667Z,1.52
2022-10-28T05:26:04.468Z,2.42
2022-10-28T05:31:07.399Z,1.20
2022-10-28T05:36:10.469Z,0.90
2022-10-28T05:41:13.170Z,1.20
2022-10-28T05:46:15.901Z,1.15
2022-10-28T05:51:18.548Z,1.75
2022-10-28T05:56:21.332Z,0.75
2022-10-28T06:01:24.185Z,1.40
2022-10-28T06:06:28.994Z,1.60
2022-10-28T06:11:30.135Z,2.45
2022-10-28T06:16:32.772Z,1.50
2022-10-28T06:21:36.896Z,1.27
2022-10-28T06:26:39.919Z,1.40
2022-10-28T06:31:42.850Z,1.63
2022-10-28T06:36:45.573Z,1.33
2022-10-28T06:41:48.228Z,3.00
2022-10-28T06:46:52.408Z,2.15
2022-10-28T06:51:55.118Z,2.45
2022-10-28T06:56:57.794Z,2.00
2022-10-28T07:02:00.566Z,1.40
2022-10-28T07:07:03.613Z,2.10
2022-10-28T07:12:08.239Z,1.35
2022-10-28T07:17:11.044Z,3.40
2022-10-28T07:22:13.896Z,5.22
2022-10-28T07:27:16.617Z,2.83
2022-10-28T07:32:19.431Z,2.42
2022-10-28T07:37:22.194Z,2.00
2022-10-28T07:42:24.939Z,2.13
2022-10-28T07:47:27.609Z,2.45
2022-10-28T07:52:30.654Z,1.35
2022-10-28T07:57:35.073Z,1.33
2022-10-28T08:02:38.038Z,2.17
2022-10-28T08:07:40.792Z,2.03
2022-10-28T08:12:43.450Z,1.85
2022-10-28T08:17:51.685Z,1.55
2022-10-28T08:22:54.923Z,1.90
2022-10-28T08:27:58.010Z,1.85
2022-10-28T08:33:00.784Z,1.50
2022-10-28T08:38:04.433Z,1.27
2022-10-28T08:43:30.341Z,1.60
2022-10-28T08:48:42.280Z,1.75
2022-10-28T08:53:48.029Z,1.55
2022-10-28T08:58:55.015Z,1.80
2022-10-28T09:03:59.503Z,1.70
2022-10-28T09:09:02.925Z,1.80
2022-10-28T09:14:22.094Z,1.93
2022-10-28T09:19:42.901Z,1.80
2022-10-28T09:24:57.363Z,1.80
2022-10-28T09:30:15.311Z,1.73
2022-10-28T09:35:21.283Z,2.00
2022-10-28T09:40:29.278Z,2.28
2022-10-28T09:45:33.404Z,2.15
2022-10-28T09:50:36.077Z,2.13
2022-10-28T09:55:38.969Z,2.00
2022-10-28T10:00:41.726Z,1.90
2022-10-28T10:05:48.412Z,1.90
2022-10-28T10:11:04.176Z,1.70
2022-10-28T10:16:24.659Z,1.48
2022-10-28T10:21:48.809Z,1.30
2022-10-28T10:26:52.769Z,1.88
2022-10-28T10:32:21.205Z,1.30
2022-10-28T10:37:24.337Z,1.50
2022-10-28T10:42:27.829Z,1.23
2022-10-28T10:47:30.576Z,1.38
2022-10-28T10:52:33.310Z,1.40
2022-10-28T10:57:36.125Z,2.33
2022-10-28T11:02:43.114Z,1.13
2022-10-28T11:07:48.622Z,1.90
2022-10-28T11:12:53.804Z,1.50
2022-10-28T11:17:58.139Z,1.40
2022-10-28T11:23:07.040Z,1.63
2022-10-28T11:28:28.207Z,1.10
2022-10-28T11:33:45.679Z,1.17
2022-10-28T11:39:11.233Z,1.33
2022-10-28T11:44:25.982Z,1.35
2022-10-28T11:55:16.744Z,1.30
2022-10-28T12:00:35.971Z,2.10
2022-10-28T12:05:53.056Z,1.13
2022-10-28T12:11:18.913Z,1.80
2022-10-28T12:16:47.815Z,1.70
2022-10-28T12:21:50.446Z,1.60
2022-10-28T12:26:56.898Z,1.70
2022-10-28T12:32:05.292Z,1.90
2022-10-28T12:37:13.304Z,1.55
2022-10-28T12:42:21.786Z,1.00
2022-10-28T12:47:47.443Z,1.08
2022-10-28T12:52:56.357Z,1.30
2022-10-28T12:58:33.932Z,0.98
2022-10-28T13:03:37.275Z,1.38
2022-10-28T13:09:14.926Z,1.08
2022-10-28T13:14:58.719Z,0.98
2022-10-28T13:20:26.701Z,1.00
2022-10-28T13:25:47.395Z,1.10
2022-10-28T13:30:55.710Z,1.52
2022-10-28T13:36:29.408Z,1.55
2022-10-28T13:41:42.227Z,1.67
2022-10-28T13:46:59.654Z,1.20
2022-10-28T13:52:04.242Z,1.70
2022-10-28T13:57:13.087Z,1.50
2022-10-28T14:02:40.619Z,0.73
2022-10-28T14:07:58.627Z,1.35
2022-10-28T14:13:19.368Z,0.60
2022-10-28T14:24:07.977Z,1.55
2022-10-28T14:29:31.946Z,1.50
2022-10-28T14:34:38.197Z,1.00
2022-10-28T14:39:44.376Z,1.20
2022-10-28T14:45:26.106Z,1.00
2022-10-28T14:50:47.306Z,0.60
2022-10-28T14:55:56.436Z,1.67
2022-10-28T15:01:19.933Z,1.33
2022-10-28T15:06:39.518Z,0.90
2022-10-28T15:11:44.576Z,1.20
2022-10-28T15:16:50.327Z,1.98
2022-10-28T15:22:20.429Z,1.67
2022-10-28T15:27:24.006Z,1.52
2022-10-28T15:32:33.631Z,1.63
2022-10-28T15:37:36.788Z,2.13
2022-10-28T15:42:50.176Z,1.50
2022-10-28T15:47:53.773Z,1.52
2022-10-28T15:53:32.371Z,1.00
2022-10-28T15:58:42.092Z,1.13
2022-10-28T16:03:47.982Z,1.02
2022-10-28T16:09:14.082Z,1.92
2022-10-28T16:14:37.658Z,1.40
2022-10-28T16:19:43.428Z,1.43
2022-10-28T16:24:46.408Z,0.90
2022-10-28T16:29:49.664Z,1.10
2022-10-28T16:34:52.375Z,1.13
2022-10-28T16:39:55.523Z,1.20
2022-10-28T16:44:58.403Z,1.10
2022-10-28T16:50:01.149Z,1.27
2022-10-28T16:55:13.912Z,1.40
2022-10-28T17:00:17.176Z,1.40
2022-10-28T17:05:22.078Z,1.50
2022-10-28T17:15:27.635Z,1.20
2022-10-28T17:20:30.395Z,1.27
2022-10-28T17:25:33.430Z,1.25
2022-10-28T17:30:36.168Z,1.95
2022-10-28T17:35:38.829Z,1.58
2022-10-28T17:40:41.588Z,1.65
2022-10-28T17:45:44.348Z,1.65
2022-10-28T17:50:54.534Z,1.80
2022-10-28T17:56:01.397Z,3.83
2022-10-28T18:01:09.344Z,2.20
2022-10-28T18:06:13.156Z,2.97
2022-10-28T18:11:17.231Z,2.13
2022-10-28T18:16:28.452Z,2.70
2022-10-28T18:21:31.156Z,2.70
2022-10-28T18:26:35.795Z,2.22
2022-10-28T18:31:39.168Z,2.13
2022-10-28T18:36:41.867Z,1.90
2022-10-28T18:41:44.967Z,2.30
2022-10-28T18:46:47.734Z,2.17
2022-10-28T18:51:50.531Z,2.60
2022-10-28T18:56:56.537Z,2.70
2022-10-28T19:02:00.467Z,2.70
2022-10-28T19:07:03.387Z,2.50
2022-10-28T19:12:07.798Z,1.77
2022-10-28T19:17:10.494Z,3.00
2022-10-28T19:22:13.255Z,2.25
2022-10-28T19:27:16.186Z,2.00
2022-10-28T19:32:21.127Z,2.60
2022-10-28T19:37:25.381Z,2.38
2022-10-28T19:42:28.163Z,2.45
2022-10-28T19:47:31.026Z,2.95
2022-10-28T19:52:33.728Z,2.88
2022-10-28T19:57:36.417Z,3.08
2022-10-28T20:02:39.186Z,2.85
2022-10-28T20:07:41.998Z,2.95
2022-10-28T20:12:44.713Z,3.10
2022-10-28T20:17:47.527Z,2.47
2022-10-28T20:22:50.197Z,3.00
2022-10-28T20:27:53.089Z,3.00
2022-10-28T20:32:56.092Z,3.38
2022-10-28T20:37:59.149Z,3.05
2022-10-28T20:43:02.072Z,2.95
2022-10-28T20:48:05.042Z,2.83
2022-10-28T20:53:07.771Z,2.88
2022-10-28T20:58:10.441Z,2.97
2022-10-28T21:03:13.261Z,2.72
2022-10-28T21:08:15.997Z,2.65
2022-10-28T21:13:19.392Z,2.28
2022-10-28T21:18:22.174Z,2.80
2022-10-28T21:23:25.505Z,2.45
2022-10-28T21:28:29.447Z,2.40
2022-10-28T21:33:33.874Z,2.23
2022-10-28T21:38:36.995Z,2.50
2022-10-28T21:43:42.370Z,2.30
2022-10-28T21:48:45.328Z,2.55
2022-10-28T21:53:48.259Z,2.88
2022-10-28T21:58:51.839Z,2.95
2022-10-28T22:03:55.703Z,2.80
2022-10-28T22:08:59.800Z,2.90
2022-10-28T22:14:04.383Z,3.30
2022-10-28T22:19:08.895Z,3.08
2022-10-28T22:24:11.807Z,3.20
2022-10-28T22:29:14.598Z,3.28
2022-10-28T22:34:17.482Z,3.40
2022-10-28T22:39:20.312Z,3.50
2022-10-28T22:44:23.266Z,3.42
2022-10-28T22:49:25.995Z,3.47
2022-10-28T22:54:28.655Z,3.40
2022-10-28T22:59:31.390Z,3.50
2022-10-28T23:04:34.073Z,3.45
2022-10-28T23:09:36.923Z,3.72
2022-10-28T23:14:39.598Z,3.53
2022-10-28T23:19:44.538Z,3.83
2022-10-28T23:24:47.305Z,4.07
2022-10-28T23:29:49.951Z,3.55
2022-10-28T23:34:52.644Z,4.10
2022-10-28T23:39:55.320Z,4.10
2022-10-28T23:44:58.059Z,3.70
2022-10-28T23:50:00.856Z,3.85
2022-10-28T23:55:04.978Z,3.40
